Time;durP1;ratioP1;P1;durP2;ratioP2;P2;SDS_P1;SDS_P2;PMS_P1;PMS_P2;Temp;Humidity;BMP_temperature;BMP_pressure;BME280_temperature;BME280_humidity;BME280_pressure;Samples;Min_cycle;Max_cycle;Signal;HPM_P1;HPM_P2
2023/01/06 00:01:08;;;;;;;0.60;0.60;;;;;8.40;96567.00;;;;5035788;28;20204;-58
2023/01/06 00:03:36;;;;;;;0.83;0.83;;;;;8.50;96551.00;;;;5035348;28;20730;-58
2023/01/06 00:06:05;;;;;;;0.53;0.53;;;;;8.40;96550.00;;;;5035438;28;20192;-58
2023/01/06 00:08:39;;;;;;;0.77;0.77;;;;;8.50;96557.00;;;;5035332;28;20223;-58
2023/01/06 00:11:09;;;;;;;0.80;0.80;;;;;8.50;96552.00;;;;5035363;28;20193;-58
2023/01/06 00:13:36;;;;;;;0.60;0.60;;;;;8.40;96552.00;;;;5035256;28;20209;-57
2023/01/06 00:16:05;;;;;;;0.60;0.60;;;;;8.40;96548.00;;;;5033986;28;20389;-57
2023/01/06 00:18:32;;;;;;;0.63;0.63;;;;;8.40;96550.00;;;;5035246;28;20197;-57
2023/01/06 00:21:00;;;;;;;0.87;0.87;;;;;8.40;96547.00;;;;5035160;28;20255;-57
2023/01/06 00:23:28;;;;;;;1.20;1.20;;;;;8.40;96546.00;;;;5035226;28;20228;-58
2023/01/06 00:25:55;;;;;;;0.70;0.70;;;;;8.50;96548.00;;;;5034996;28;20204;-57
2023/01/06 00:28:24;;;;;;;0.70;0.70;;;;;8.50;96537.00;;;;5034554;28;20283;-57
2023/01/06 00:30:52;;;;;;;0.60;0.60;;;;;8.60;96542.00;;;;5035215;28;20575;-57
2023/01/06 00:33:19;;;;;;;0.50;0.50;;;;;8.60;96547.00;;;;5034827;28;20707;-57
2023/01/06 00:35:47;;;;;;;0.60;0.60;;;;;8.60;96531.00;;;;5034870;28;20193;-57
2023/01/06 00:38:14;;;;;;;0.80;0.80;;;;;8.60;96530.00;;;;5035328;28;20184;-57
2023/01/06 00:40:41;;;;;;;0.60;0.60;;;;;8.70;96536.00;;;;5034819;28;20193;-57
2023/01/06 00:43:09;;;;;;;0.60;0.60;;;;;8.70;96529.00;;;;5034502;28;20212;-57
2023/01/06 00:45:38;;;;;;;0.80;0.80;;;;;8.70;96523.00;;;;5034954;28;20565;-57
2023/01/06 00:48:06;;;;;;;0.73;0.73;;;;;8.80;96523.00;;;;5035036;28;20266;-58
2023/01/06 00:50:33;;;;;;;1.57;1.03;;;;;8.80;96516.00;;;;5034708;28;20247;-57
2023/01/06 00:53:01;;;;;;;0.80;0.80;;;;;8.90;96522.00;;;;5034302;28;20274;-57
2023/01/06 00:55:29;;;;;;;0.60;0.60;;;;;8.80;96516.00;;;;5034479;28;20193;-57
2023/01/06 00:57:56;;;;;;;0.73;0.73;;;;;8.80;96507.00;;;;5034872;28;20189;-57
2023/01/06 01:00:23;;;;;;;0.50;0.50;;;;;8.70;96506.00;;;;5034611;28;20532;-57
2023/01/06 01:02:52;;;;;;;0.60;0.60;;;;;8.80;96515.00;;;;5034265;28;20209;-58
2023/01/06 01:05:20;;;;;;;0.80;0.80;;;;;8.70;96510.00;;;;5034510;28;20204;-57
2023/01/06 01:07:47;;;;;;;0.70;0.70;;;;;8.80;96520.00;;;;5034234;28;20212;-58
2023/01/06 01:10:14;;;;;;;0.80;0.80;;;;;8.70;96514.00;;;;5034166;28;20652;-58
2023/01/06 01:12:42;;;;;;;1.23;1.20;;;;;8.70;96509.00;;;;5034094;28;20216;-58
2023/01/06 01:15:10;;;;;;;0.60;0.60;;;;;8.70;96507.00;;;;5034152;28;20197;-57
2023/01/06 01:17:39;;;;;;;0.53;0.53;;;;;8.80;96522.00;;;;5034058;28;20192;-57
2023/01/06 01:20:10;;;;;;;0.50;0.50;;;;;8.90;96513.00;;;;5034032;28;20215;-57
2023/01/06 01:22:37;;;;;;;0.70;0.70;;;;;8.90;96511.00;;;;5033912;28;20660;-57
2023/01/06 01:25:05;;;;;;;0.50;0.50;;;;;8.90;96517.00;;;;5033874;28;20215;-57
2023/01/06 01:27:33;;;;;;;1.03;1.03;;;;;8.80;96504.00;;;;5034314;28;20193;-57
2023/01/06 01:30:00;;;;;;;0.90;0.90;;;;;8.80;96515.00;;;;5033814;28;20201;-57
2023/01/06 01:32:27;;;;;;;0.60;0.60;;;;;8.90;96503.00;;;;5033955;28;20191;-57
2023/01/06 01:34:55;;;;;;;0.50;0.50;;;;;8.90;96506.00;;;;5015970;28;20686;-57
2023/01/06 01:37:24;;;;;;;1.70;0.83;;;;;8.90;96504.00;;;;5032383;28;20199;-57
2023/01/06 01:39:51;;;;;;;0.53;0.53;;;;;8.90;96502.00;;;;5031681;28;20196;-57
2023/01/06 01:42:20;;;;;;;4.50;1.27;;;;;8.90;96512.00;;;;5033733;28;20613;-58
2023/01/06 01:44:57;;;;;;;0.60;0.60;;;;;8.90;96485.00;;;;5034027;28;20200;-57
2023/01/06 01:47:38;;;;;;;0.60;0.60;;;;;8.90;96510.00;;;;5033443;28;20187;-57
2023/01/06 01:50:17;;;;;;;0.60;0.60;;;;;8.90;96515.00;;;;5033758;28;20635;-57
2023/01/06 01:52:50;;;;;;;0.63;0.63;;;;;8.80;96507.00;;;;5033677;28;20220;-56
2023/01/06 01:55:18;;;;;;;0.70;0.70;;;;;8.90;96505.00;;;;5065157;23;20297;-66
2023/01/06 01:57:51;;;;;;;1.30;1.27;;;;;8.80;96504.00;;;;5035439;28;20192;-66
2023/01/06 02:00:19;;;;;;;0.60;0.60;;;;;8.90;96499.00;;;;5053313;28;20188;-66
2023/01/06 02:02:47;;;;;;;0.60;0.60;;;;;8.90;96499.00;;;;5053234;28;20279;-66
2023/01/06 02:05:19;;;;;;;0.80;0.80;;;;;8.90;96500.00;;;;5053481;28;20227;-66
2023/01/06 02:07:49;;;;;;;0.60;0.60;;;;;8.80;96495.00;;;;5053508;28;20215;-66
2023/01/06 02:10:18;;;;;;;0.60;0.60;;;;;8.80;96484.00;;;;5053194;28;20539;-66
2023/01/06 02:12:49;;;;;;;1.70;0.90;;;;;8.80;96494.00;;;;5053093;28;20196;-65
2023/01/06 02:15:23;;;;;;;0.50;0.50;;;;;8.80;96493.00;;;;5053199;28;20624;-67
2023/01/06 02:18:26;;;;;;;0.47;0.47;;;;;8.70;96493.00;;;;5053622;28;20575;-66
2023/01/06 02:21:09;;;;;;;0.57;0.57;;;;;8.80;96489.00;;;;5053204;28;20666;-66
2023/01/06 02:24:07;;;;;;;0.80;0.80;;;;;8.70;96488.00;;;;5053249;28;20223;-66
2023/01/06 02:27:14;;;;;;;0.90;0.90;;;;;8.70;96489.00;;;;5053236;28;20603;-66
2023/01/06 02:30:12;;;;;;;0.70;0.70;;;;;8.80;96485.00;;;;5053104;28;20532;-67
2023/01/06 02:32:51;;;;;;;0.63;0.63;;;;;8.80;96479.00;;;;5052906;28;20663;-66
2023/01/06 02:35:38;;;;;;;1.03;1.00;;;;;8.60;96484.00;;;;5053135;28;20683;-67
2023/01/06 02:38:16;;;;;;;0.60;0.60;;;;;8.60;96489.00;;;;5053060;28;20177;-66
2023/01/06 02:40:59;;;;;;;0.87;0.87;;;;;8.60;96483.00;;;;5053393;28;20188;-66
2023/01/06 02:43:36;;;;;;;0.63;0.63;;;;;8.60;96483.00;;;;5053050;28;20273;-66
2023/01/06 02:46:16;;;;;;;0.70;0.70;;;;;8.80;96475.00;;;;5053106;28;20596;-66
2023/01/06 02:48:56;;;;;;;0.60;0.60;;;;;8.70;96471.00;;;;5053257;28;20207;-66
2023/01/06 02:51:29;;;;;;;4.83;1.07;;;;;8.70;96460.00;;;;5055683;28;20188;-66
2023/01/06 02:54:06;;;;;;;1.03;0.67;;;;;8.80;96464.00;;;;5056848;28;20266;-66
2023/01/06 02:56:39;;;;;;;0.67;0.67;;;;;8.80;96468.00;;;;5056737;28;20184;-65
2023/01/06 02:59:10;;;;;;;0.60;0.60;;;;;8.80;96467.00;;;;5057160;28;20181;-65
2023/01/06 03:01:40;;;;;;;1.27;1.00;;;;;8.90;96464.00;;;;5038760;28;20180;-65
2023/01/06 03:04:14;;;;;;;0.50;0.50;;;;;9.00;96451.00;;;;5056525;28;20223;-66
2023/01/06 03:06:45;;;;;;;2.53;0.90;;;;;8.90;96449.00;;;;5056802;28;20179;-66
2023/01/06 03:09:15;;;;;;;0.57;0.57;;;;;9.00;96445.00;;;;5056715;28;20563;-65
2023/01/06 03:11:45;;;;;;;0.50;0.50;;;;;9.10;96443.00;;;;5056423;28;20207;-66
2023/01/06 03:14:17;;;;;;;0.50;0.50;;;;;9.10;96447.00;;;;5056356;28;20211;-65
2023/01/06 03:16:44;;;;;;;0.70;0.70;;;;;8.80;96454.00;;;;5056658;28;20586;-65
2023/01/06 03:19:14;;;;;;;0.60;0.60;;;;;8.80;96455.00;;;;5056593;28;20196;-65
2023/01/06 03:21:45;;;;;;;0.70;0.70;;;;;8.80;96447.00;;;;5056361;28;20242;-65
2023/01/06 03:24:13;;;;;;;1.43;1.33;;;;;8.80;96467.00;;;;5056718;28;20613;-65
2023/01/06 03:26:41;;;;;;;0.70;0.70;;;;;8.90;96446.00;;;;5056168;28;20192;-66
2023/01/06 03:29:12;;;;;;;0.53;0.53;;;;;8.90;96452.00;;;;5056018;28;20278;-66
2023/01/06 03:31:48;;;;;;;0.50;0.50;;;;;8.80;96455.00;;;;5056087;28;20185;-66
2023/01/06 03:34:27;;;;;;;0.60;0.60;;;;;8.80;96466.00;;;;5056190;28;20265;-66
2023/01/06 03:37:01;;;;;;;0.60;0.60;;;;;8.90;96457.00;;;;5056299;28;20251;-65
2023/01/06 03:39:36;;;;;;;0.60;0.60;;;;;8.90;96465.00;;;;5056048;28;20180;-65
2023/01/06 03:45:10;;;;;;;0.77;0.77;;;;;8.90;96459.00;;;;5055702;28;20287;-65
2023/01/06 03:47:43;;;;;;;0.60;0.60;;;;;9.00;96458.00;;;;5056325;28;20176;-65
2023/01/06 03:50:17;;;;;;;0.60;0.60;;;;;9.10;96456.00;;;;5055938;28;20658;-66
2023/01/06 03:52:50;;;;;;;0.60;0.60;;;;;9.00;96457.00;;;;5056541;28;20184;-65
2023/01/06 03:55:21;;;;;;;0.70;0.70;;;;;9.10;96455.00;;;;5055556;28;20307;-66
2023/01/06 03:57:51;;;;;;;0.60;0.60;;;;;9.10;96451.00;;;;5037799;28;20253;-66
2023/01/06 04:00:22;;;;;;;0.60;0.60;;;;;9.00;96463.00;;;;5056110;28;20191;-66
2023/01/06 04:02:50;;;;;;;0.50;0.50;;;;;9.00;96448.00;;;;5054728;28;20238;-66
2023/01/06 04:05:21;;;;;;;0.70;0.70;;;;;9.00;96445.00;;;;5055645;28;20208;-65
2023/01/06 04:07:49;;;;;;;0.60;0.60;;;;;9.00;96455.00;;;;5055405;28;20614;-66
2023/01/06 04:10:18;;;;;;;0.50;0.50;;;;;8.90;96449.00;;;;5055581;28;20223;-66
2023/01/06 04:12:46;;;;;;;0.67;0.67;;;;;8.90;96444.00;;;;5055325;28;20246;-66
2023/01/06 04:15:16;;;;;;;0.60;0.60;;;;;9.00;96445.00;;;;5055183;28;20223;-66
2023/01/06 04:17:45;;;;;;;0.70;0.70;;;;;9.10;96440.00;;;;5055507;28;20203;-66
2023/01/06 04:20:18;;;;;;;0.60;0.60;;;;;9.10;96437.00;;;;5055138;28;20250;-66
2023/01/06 04:22:45;;;;;;;0.77;0.77;;;;;9.00;96435.00;;;;5055664;28;20192;-66
2023/01/06 04:25:13;;;;;;;0.50;0.50;;;;;9.00;96432.00;;;;5055233;28;20216;-67
2023/01/06 04:27:41;;;;;;;0.70;0.70;;;;;9.10;96430.00;;;;5055018;28;20655;-65
2023/01/06 04:30:09;;;;;;;0.60;0.60;;;;;9.20;96429.00;;;;5055128;28;20718;-65
2023/01/06 04:32:36;;;;;;;0.60;0.60;;;;;9.10;96430.00;;;;5054956;28;20253;-66
2023/01/06 04:35:04;;;;;;;0.80;0.80;;;;;9.20;96421.00;;;;5055305;28;20216;-66
2023/01/06 04:37:33;;;;;;;0.60;0.60;;;;;9.10;96412.00;;;;5054833;28;20196;-66
2023/01/06 04:40:00;;;;;;;0.70;0.70;;;;;9.10;96418.00;;;;5054994;28;20609;-66
2023/01/06 04:42:28;;;;;;;1.03;0.83;;;;;9.10;96421.00;;;;5055297;28;20262;-66
2023/01/06 04:44:55;;;;;;;0.60;0.60;;;;;9.10;96421.00;;;;5054667;28;20269;-66
2023/01/06 04:47:22;;;;;;;0.60;0.60;;;;;9.10;96420.00;;;;5054924;28;20192;-66
2023/01/06 04:49:50;;;;;;;0.60;0.60;;;;;9.10;96420.00;;;;5054498;28;20220;-66
2023/01/06 04:52:17;;;;;;;0.50;0.50;;;;;9.00;96420.00;;;;5054599;28;20245;-65
2023/01/06 04:54:46;;;;;;;0.60;0.60;;;;;9.00;96419.00;;;;5054382;28;20273;-65
2023/01/06 04:57:13;;;;;;;0.60;0.60;;;;;9.10;96421.00;;;;5036580;28;20204;-66
2023/01/06 04:59:41;;;;;;;0.60;0.60;;;;;9.00;96422.00;;;;5054923;28;20196;-66
2023/01/06 05:02:08;;;;;;;0.60;0.60;;;;;8.90;96423.00;;;;5054331;28;20668;-66
2023/01/06 05:04:35;;;;;;;0.70;0.70;;;;;9.10;96396.00;;;;5054307;28;20630;-66
2023/01/06 05:07:03;;;;;;;0.50;0.50;;;;;9.00;96410.00;;;;5054210;28;20662;-66
2023/01/06 05:09:30;;;;;;;0.50;0.50;;;;;8.90;96397.00;;;;5054417;28;20569;-66
2023/01/06 05:11:59;;;;;;;0.60;0.60;;;;;9.00;96400.00;;;;5054476;28;20562;-66
2023/01/06 05:14:26;;;;;;;0.90;0.90;;;;;8.90;96402.00;;;;5053005;28;20262;-66
2023/01/06 05:16:54;;;;;;;0.70;0.70;;;;;8.90;96410.00;;;;5054087;28;20314;-66
2023/01/06 05:19:21;;;;;;;1.00;1.00;;;;;8.80;96406.00;;;;5053974;28;20188;-66
2023/01/06 05:21:49;;;;;;;0.50;0.50;;;;;8.70;96411.00;;;;5053971;28;20196;-66
2023/01/06 05:24:16;;;;;;;0.60;0.60;;;;;8.60;96408.00;;;;5053848;28;20268;-65
2023/01/06 05:26:43;;;;;;;0.60;0.60;;;;;8.60;96413.00;;;;5053894;28;20196;-66
2023/01/06 05:29:15;;;;;;;0.60;0.60;;;;;8.70;96403.00;;;;5053793;28;20219;-66
2023/01/06 05:31:43;;;;;;;0.60;0.60;;;;;8.70;96409.00;;;;5054107;28;20180;-66
2023/01/06 05:34:11;;;;;;;0.57;0.57;;;;;8.70;96404.00;;;;5053662;28;20220;-67
2023/01/06 05:36:38;;;;;;;0.70;0.70;;;;;8.70;96413.00;;;;5053728;28;20200;-65
2023/01/06 05:39:06;;;;;;;0.73;0.73;;;;;8.70;96404.00;;;;5053608;28;20192;-65
2023/01/06 05:41:33;;;;;;;0.70;0.70;;;;;8.70;96399.00;;;;5053644;28;20192;-66
2023/01/06 05:44:01;;;;;;;1.47;0.90;;;;;8.70;96407.00;;;;5053485;28;20270;-66
2023/01/06 05:46:29;;;;;;;0.50;0.50;;;;;8.60;96410.00;;;;5053772;28;20535;-66
2023/01/06 05:48:57;;;;;;;0.53;0.53;;;;;8.60;96401.00;;;;5053669;28;20229;-66
2023/01/06 05:51:24;;;;;;;0.50;0.50;;;;;8.70;96396.00;;;;5053390;28;20273;-66
2023/01/06 05:53:51;;;;;;;0.60;0.60;;;;;8.70;96392.00;;;;5053333;28;20633;-66
2023/01/06 05:56:21;;;;;;;0.70;0.70;;;;;8.60;96387.00;;;;5053903;28;20201;-66
2023/01/06 05:58:50;;;;;;;0.60;0.60;;;;;8.50;96388.00;;;;5053282;28;20202;-65
2023/01/06 06:01:20;;;;;;;0.50;0.50;;;;;8.50;96386.00;;;;5053266;28;20246;-66
2023/01/06 06:03:49;;;;;;;0.70;0.70;;;;;8.60;96392.00;;;;5053157;28;20270;-66
2023/01/06 06:06:18;;;;;;;3.80;1.27;;;;;8.60;96400.00;;;;5053192;28;20200;-66
2023/01/06 06:08:45;;;;;;;0.50;0.50;;;;;8.70;96403.00;;;;5053298;28;20192;-66
2023/01/06 06:11:14;;;;;;;0.50;0.50;;;;;8.50;96408.00;;;;5053202;28;20207;-66
2023/01/06 06:13:46;;;;;;;0.60;0.60;;;;;8.50;96412.00;;;;5053132;28;20270;-67
2023/01/06 06:16:16;;;;;;;0.60;0.60;;;;;8.40;96400.00;;;;5035282;28;20254;-67
2023/01/06 06:18:44;;;;;;;0.50;0.50;;;;;8.40;96395.00;;;;5053073;28;20188;-67
2023/01/06 06:21:14;;;;;;;0.53;0.53;;;;;8.30;96403.00;;;;5053007;28;20192;-66
2023/01/06 06:23:41;;;;;;;0.70;0.70;;;;;8.50;96407.00;;;;5053187;28;20216;-66
2023/01/06 06:26:10;;;;;;;0.60;0.60;;;;;8.50;96407.00;;;;5052755;28;20196;-66
2023/01/06 06:28:38;;;;;;;0.80;0.80;;;;;8.50;96410.00;;;;5053238;28;20540;-66
2023/01/06 06:31:08;;;;;;;0.50;0.50;;;;;8.60;96407.00;;;;5053365;28;20273;-66
2023/01/06 06:33:36;;;;;;;0.80;0.80;;;;;8.50;96408.00;;;;5053100;28;20212;-65
2023/01/06 06:36:04;;;;;;;0.60;0.60;;;;;8.60;96406.00;;;;5052945;28;20196;-66
2023/01/06 06:38:33;;;;;;;0.60;0.60;;;;;8.60;96407.00;;;;5052858;28;20196;-65
2023/01/06 06:41:00;;;;;;;0.50;0.50;;;;;8.60;96418.00;;;;5052855;28;20197;-65
2023/01/06 06:43:28;;;;;;;0.63;0.63;;;;;8.60;96424.00;;;;5052743;28;20266;-65
2023/01/06 06:45:55;;;;;;;0.53;0.53;;;;;8.60;96422.00;;;;5052749;28;20203;-65
2023/01/06 06:48:23;;;;;;;0.70;0.70;;;;;8.60;96425.00;;;;5053291;28;20196;-66
2023/01/06 06:50:57;;;;;;;0.60;0.60;;;;;8.60;96436.00;;;;5052689;28;20705;-66
2023/01/06 06:53:25;;;;;;;0.60;0.60;;;;;8.70;96433.00;;;;5052781;28;20243;-65
2023/01/06 06:55:53;;;;;;;0.53;0.53;;;;;8.60;96435.00;;;;5052997;28;20246;-66
2023/01/06 06:58:21;;;;;;;0.67;0.67;;;;;8.60;96444.00;;;;5052936;28;20581;-65
2023/01/06 07:00:48;;;;;;;0.60;0.60;;;;;8.60;96438.00;;;;5052652;28;20192;-66
2023/01/06 07:03:16;;;;;;;0.73;0.73;;;;;8.70;96438.00;;;;5052571;28;20193;-66
2023/01/06 07:05:44;;;;;;;1.03;1.03;;;;;8.80;96432.00;;;;5052643;28;20246;-66
2023/01/06 07:08:12;;;;;;;0.73;0.73;;;;;8.80;96439.00;;;;5052631;28;20204;-66
2023/01/06 07:10:40;;;;;;;0.60;0.60;;;;;8.60;96444.00;;;;5052817;28;20270;-66
2023/01/06 07:13:09;;;;;;;0.80;0.80;;;;;8.60;96439.00;;;;5052445;28;20203;-66
2023/01/06 07:15:36;;;;;;;1.20;1.10;;;;;8.60;96446.00;;;;5052546;28;20238;-66
2023/01/06 07:18:05;;;;;;;0.60;0.60;;;;;8.50;96444.00;;;;5052444;28;20318;-66
2023/01/06 07:20:34;;;;;;;0.73;0.73;;;;;8.50;96444.00;;;;5052460;28;20205;-66
2023/01/06 07:23:02;;;;;;;0.50;0.50;;;;;8.60;96439.00;;;;5052630;28;20536;-67
2023/01/06 07:25:29;;;;;;;0.60;0.60;;;;;8.60;96444.00;;;;5052434;28;20250;-65
2023/01/06 07:27:59;;;;;;;0.70;0.70;;;;;8.70;96444.00;;;;5052389;28;20192;-66
2023/01/06 07:30:28;;;;;;;0.57;0.57;;;;;8.50;96446.00;;;;5052282;28;20216;-65
2023/01/06 07:32:55;;;;;;;0.63;0.63;;;;;8.50;96464.00;;;;5052578;28;20532;-66
2023/01/06 07:35:23;;;;;;;0.50;0.50;;;;;8.60;96449.00;;;;5052601;28;20196;-66
2023/01/06 07:37:50;;;;;;;0.63;0.63;;;;;8.60;96462.00;;;;5053819;28;20192;-67
2023/01/06 07:40:18;;;;;;;0.60;0.60;;;;;8.60;96462.00;;;;5056497;28;20195;-66
2023/01/06 07:42:46;;;;;;;0.60;0.60;;;;;8.50;96449.00;;;;5055897;28;20242;-66
2023/01/06 07:45:14;;;;;;;0.60;0.60;;;;;8.50;96458.00;;;;5056030;28;20615;-66
2023/01/06 07:47:42;;;;;;;0.60;0.60;;;;;8.40;96467.00;;;;5055806;28;20674;-66
2023/01/06 07:50:10;;;;;;;0.60;0.60;;;;;8.50;96461.00;;;;5056308;28;20251;-66
2023/01/06 07:52:37;;;;;;;0.50;0.50;;;;;8.50;96463.00;;;;5056027;28;20611;-66
2023/01/06 07:55:05;;;;;;;0.60;0.60;;;;;8.40;96473.00;;;;5069366;22;20254;-58
2023/01/06 07:57:33;;;;;;;0.60;0.60;;;;;8.40;96473.00;;;;5037688;28;20200;-58
2023/01/06 08:00:00;;;;;;;0.60;0.60;;;;;8.40;96483.00;;;;5055479;28;20200;-58
2023/01/06 08:02:28;;;;;;;0.60;0.60;;;;;8.40;96490.00;;;;5055584;28;20627;-58
2023/01/06 08:04:56;;;;;;;0.60;0.60;;;;;8.50;96493.00;;;;5055870;28;20219;-58
2023/01/06 08:07:24;;;;;;;0.63;0.63;;;;;8.50;96490.00;;;;5055356;28;20200;-57
2023/01/06 08:09:51;;;;;;;0.70;0.70;;;;;8.50;96495.00;;;;5055705;28;20226;-58
2023/01/06 08:12:19;;;;;;;0.70;0.70;;;;;8.60;96501.00;;;;5055258;28;20670;-58
2023/01/06 08:14:46;;;;;;;0.70;0.70;;;;;8.60;96491.00;;;;5055081;28;20223;-58
2023/01/06 08:17:14;;;;;;;1.47;1.37;;;;;8.60;96497.00;;;;5055080;28;20196;-57
2023/01/06 08:19:41;;;;;;;0.70;0.70;;;;;8.60;96500.00;;;;5055111;28;20196;-58
2023/01/06 08:22:10;;;;;;;1.10;1.00;;;;;8.60;96500.00;;;;5055026;28;20205;-58
2023/01/06 08:24:38;;;;;;;1.13;1.03;;;;;8.60;96504.00;;;;5054948;28;20216;-58
2023/01/06 08:27:05;;;;;;;0.50;0.50;;;;;8.60;96507.00;;;;5054983;28;20203;-58
2023/01/06 08:29:33;;;;;;;0.60;0.60;;;;;8.60;96503.00;;;;5054880;28;20192;-58
2023/01/06 08:32:00;;;;;;;0.80;0.80;;;;;8.60;96513.00;;;;5054863;28;20196;-58
2023/01/06 08:34:27;;;;;;;0.87;0.87;;;;;8.60;96524.00;;;;5054783;28;20281;-58
2023/01/06 08:36:55;;;;;;;0.60;0.60;;;;;8.70;96505.00;;;;5055104;28;20659;-58
2023/01/06 08:39:24;;;;;;;0.70;0.70;;;;;8.70;96515.00;;;;5054824;28;20203;-58
2023/01/06 08:41:53;;;;;;;0.60;0.60;;;;;8.80;96508.00;;;;5054681;28;20184;-58
2023/01/06 08:44:20;;;;;;;0.53;0.53;;;;;8.90;96511.00;;;;5054638;28;20216;-58
2023/01/06 08:46:47;;;;;;;0.70;0.70;;;;;8.90;96513.00;;;;5054622;28;20289;-58
2023/01/06 08:49:15;;;;;;;0.40;0.40;;;;;9.00;96507.00;;;;5054756;28;20188;-58
2023/01/06 08:51:42;;;;;;;0.67;0.67;;;;;9.00;96514.00;;;;5054764;28;20622;-58
2023/01/06 08:54:10;;;;;;;0.70;0.70;;;;;9.10;96515.00;;;;5054364;28;20199;-58
2023/01/06 08:56:42;;;;;;;0.70;0.70;;;;;9.00;96524.00;;;;5054446;28;20188;-58
2023/01/06 08:59:14;;;;;;;0.53;0.53;;;;;9.00;96525.00;;;;5054452;28;20216;-58
2023/01/06 09:01:42;;;;;;;0.60;0.60;;;;;9.10;96521.00;;;;5054372;28;20176;-57
2023/01/06 09:04:11;;;;;;;0.80;0.80;;;;;8.80;96531.00;;;;5054189;28;20192;-57
2023/01/06 09:06:41;;;;;;;0.60;0.60;;;;;9.10;96528.00;;;;5054117;28;20192;-57
2023/01/06 09:09:11;;;;;;;0.50;0.50;;;;;9.20;96540.00;;;;5054169;28;20184;-57
2023/01/06 09:11:42;;;;;;;0.60;0.60;;;;;9.30;96534.00;;;;5054013;28;20250;-57
2023/01/06 09:14:10;;;;;;;0.70;0.70;;;;;9.20;96536.00;;;;5054037;28;20180;-57
2023/01/06 09:16:37;;;;;;;5.10;0.80;;;9.80;96.10;9.20;96537.00;;;;5054070;28;20279;-57
2023/01/06 09:19:04;;;;;;;0.90;0.90;;;9.90;97.00;9.20;96530.00;;;;5054488;28;20192;-57
2023/01/06 09:21:31;;;;;;;1.07;0.97;;;;;8.90;96525.00;;;;5054255;28;20554;-57
2023/01/06 09:23:59;;;;;;;0.50;0.50;;;;;9.10;96518.00;;;;5053726;28;20270;-57
2023/01/06 09:26:26;;;;;;;0.60;0.60;;;;;9.30;96523.00;;;;5053819;28;20192;-58
2023/01/06 09:28:55;;;;;;;0.50;0.50;;;;;9.30;96536.00;;;;5053833;28;20192;-58
2023/01/06 09:31:23;;;;;;;0.60;0.60;;;;;9.40;96530.00;;;;5053732;28;20222;-57
2023/01/06 09:33:50;;;;;;;0.63;0.63;;;;;9.20;96534.00;;;;5053701;28;20196;-57
2023/01/06 09:36:18;;;;;;;0.60;0.60;;;;;9.10;96529.00;;;;5053667;28;20226;-57
2023/01/06 09:38:45;;;;;;;0.60;0.60;;;;;9.10;96545.00;;;;5053959;28;20192;-57
2023/01/06 09:41:45;;;;;;;0.50;0.50;;;;;9.00;96546.00;;;;5053604;28;20249;-58
2023/01/06 09:44:19;;;;;;;0.60;0.60;;;;;8.90;96550.00;;;;5035643;28;20698;-57
2023/01/06 09:46:49;;;;;;;0.60;0.60;;;;;8.90;96549.00;;;;5053790;28;20188;-57
2023/01/06 09:49:25;;;;;;;0.50;0.50;;;;;8.80;96541.00;;;;5053985;28;20180;-57
2023/01/06 09:51:54;;;;;;;0.50;0.50;;;;;9.10;96556.00;;;;5053570;28;20250;-57
2023/01/06 09:54:25;;;;;;;0.50;0.50;;;;;9.40;96548.00;;;;5053402;28;20231;-58
2023/01/06 09:56:59;;;;;;;0.80;0.80;;;;;9.20;96552.00;;;;5053689;28;20298;-57
2023/01/06 09:59:32;;;;;;;0.60;0.60;;;;;9.10;96541.00;;;;5053211;28;20545;-57
2023/01/06 10:02:04;;;;;;;0.80;0.80;;;9.60;93.20;9.00;96527.00;;;;5053015;28;20180;-58
2023/01/06 10:04:31;;;;;;;0.70;0.70;;;;;8.90;96525.00;;;;5053520;28;20207;-57
2023/01/06 10:07:12;;;;;;;0.60;0.60;;;;;9.00;96533.00;;;;5053190;28;20192;-57
2023/01/06 10:09:53;;;;;;;0.60;0.60;;;9.80;93.70;9.20;96533.00;;;;5053301;28;20646;-57
2023/01/06 10:12:40;;;;;;;0.60;0.60;;;9.90;93.00;9.30;96523.00;;;;5053352;28;20717;-57
2023/01/06 10:15:20;;;;;;;0.90;0.87;;;;;9.50;96524.00;;;;5053394;28;20575;-58
2023/01/06 10:18:03;;;;;;;0.60;0.60;;;;;9.60;96526.00;;;;5053491;28;20196;-57
2023/01/06 10:20:48;;;;;;;0.57;0.57;;;;;9.70;96512.00;;;;5053369;28;20180;-58
2023/01/06 10:23:28;;;;;;;0.77;0.77;;;;;10.00;96508.00;;;;5053072;28;20635;-58
2023/01/06 10:26:01;;;;;;;0.60;0.60;;;;;10.00;96503.00;;;;5052828;28;20208;-58
2023/01/06 10:28:31;;;;;;;0.60;0.60;;;;;10.10;96499.00;;;;5053142;28;20192;-58
2023/01/06 10:31:04;;;;;;;0.60;0.60;;;;;10.20;96486.00;;;;5052769;28;20208;-58
2023/01/06 10:33:36;;;;;;;0.43;0.43;;;;;10.20;96493.00;;;;5052855;28;20216;-58
2023/01/06 10:36:03;;;;;;;0.50;0.50;;;10.60;88.20;9.80;96479.00;;;;5052988;28;20292;-58
2023/01/06 10:38:39;;;;;;;1.03;0.83;;;10.50;88.60;9.60;96477.00;;;;5052790;28;20189;-57
2023/01/06 10:41:15;;;;;;;0.57;0.57;;;;;9.50;96490.00;;;;5053286;28;20188;-58
2023/01/06 10:43:42;;;;;;;0.53;0.53;;;10.20;92.20;9.40;96475.00;;;;5052787;28;20176;-57
2023/01/06 10:46:11;;;;;;;0.50;0.50;;;;;9.40;96480.00;;;;5034793;28;20223;-57
2023/01/06 10:48:40;;;;;;;0.50;0.50;;;10.10;91.20;9.60;96471.00;;;;5052693;28;20667;-57
2023/01/06 10:51:34;;;;;;;0.50;0.50;;;10.20;91.90;9.50;96467.00;;;;5052836;28;20230;-57
2023/01/06 10:54:05;;;;;;;0.70;0.70;;;;;9.90;96458.00;;;;5052821;28;20177;-58
2023/01/06 10:56:35;;;;;;;0.60;0.60;;;;;9.60;96455.00;;;;5052897;28;20624;-58
2023/01/06 10:59:07;;;;;;;0.60;0.60;;;;;9.80;96453.00;;;;5052644;28;20608;-58
2023/01/06 11:01:47;;;;;;;0.77;0.77;;;;;9.70;96450.00;;;;5052690;28;20601;-57
2023/01/06 11:04:16;;;;;;;0.50;0.50;;;;;9.60;96457.00;;;;5034666;28;20198;-57
2023/01/06 11:06:45;;;;;;;0.50;0.50;;;;;10.00;96464.00;;;;5052548;28;20219;-58
2023/01/06 11:09:30;;;;;;;0.57;0.57;;;;;9.70;96466.00;;;;5052575;28;20203;-58
2023/01/06 11:12:00;;;;;;;0.50;0.50;;;;;9.80;96464.00;;;;5054489;28;20651;-57
2023/01/06 11:14:30;;;;;;;0.50;0.50;;;;;10.10;96456.00;;;;5056591;28;20239;-58
2023/01/06 11:17:02;;;;;;;0.70;0.70;;;;;10.10;96469.00;;;;5056571;28;20203;-58
2023/01/06 11:19:38;;;;;;;0.60;0.60;;;;;10.10;96479.00;;;;5056583;28;20577;-58
2023/01/06 11:22:06;;;;;;;0.50;0.50;;;;;9.90;96470.00;;;;5056193;28;20242;-57
2023/01/06 11:24:48;;;;;;;0.60;0.60;;;;;9.90;96469.00;;;;5056335;28;20547;-58
2023/01/06 11:27:17;;;;;;;0.60;0.60;;;;;9.60;96468.00;;;;5056246;28;20181;-58
2023/01/06 11:29:44;;;;;;;0.60;0.60;;;;;9.60;96458.00;;;;5056036;28;20192;-58
2023/01/06 11:32:18;;;;;;;0.60;0.60;;;;;10.10;96452.00;;;;5056185;28;20223;-57
2023/01/06 11:34:54;;;;;;;0.60;0.60;;;;;10.10;96457.00;;;;5056108;28;20274;-58
2023/01/06 11:37:31;;;;;;;0.60;0.60;;;;;9.90;96446.00;;;;5056225;28;20230;-58
2023/01/06 11:39:58;;;;;;;0.50;0.50;;;;;10.40;96452.00;;;;5055987;28;20650;-58
2023/01/06 11:42:26;;;;;;;0.57;0.57;;;;;10.10;96446.00;;;;5055917;28;20192;-57
2023/01/06 11:44:53;;;;;;;0.60;0.60;;;;;10.30;96459.00;;;;5055739;28;20223;-57
2023/01/06 11:47:24;;;;;;;0.50;0.50;;;;;10.60;96440.00;;;;5037852;28;20199;-57
2023/01/06 11:49:54;;;;;;;0.60;0.60;;;;;10.40;96440.00;;;;5055820;28;20184;-58
2023/01/06 11:52:24;;;;;;;0.57;0.57;;;;;10.90;96398.00;;;;5055861;28;20220;-58
2023/01/06 11:55:01;;;;;;;0.50;0.50;;;;;11.80;96440.00;;;;5055439;28;20245;-58
2023/01/06 11:57:37;;;;;;;0.60;0.60;;;;;11.70;96433.00;;;;5055818;28;20278;-58
2023/01/06 12:00:31;;;;;;;0.57;0.57;;;;;12.30;96426.00;;;;5055602;28;20180;-58
2023/01/06 12:03:08;;;;;;;0.40;0.40;;;;;12.60;96435.00;;;;5055525;28;20180;-58
2023/01/06 12:05:43;;;;;;;0.60;0.60;;;;;11.70;96444.00;;;;5055430;28;20215;-58
2023/01/06 12:08:17;;;;;;;0.50;0.50;;;;;11.00;96439.00;;;;5055530;28;20639;-58
2023/01/06 12:10:49;;;;;;;0.50;0.50;;;;;11.30;96431.00;;;;5055529;28;20226;-58
2023/01/06 12:13:16;;;;;;;0.57;0.57;;;;;10.80;96437.00;;;;5055245;28;20267;-58
2023/01/06 12:15:47;;;;;;;0.60;0.60;;;;;10.60;96431.00;;;;5055407;28;20577;-58
2023/01/06 12:18:21;;;;;;;0.50;0.50;;;;;10.30;96425.00;;;;5038117;28;20188;-58
2023/01/06 12:20:51;;;;;;;0.50;0.50;;;;;10.10;96429.00;;;;5055124;28;20619;-58
2023/01/06 12:23:26;;;;;;;0.53;0.53;;;10.90;63.60;10.30;96439.00;;;;5054434;28;20652;-57
2023/01/06 12:25:59;;;;;;;0.60;0.60;;;10.80;63.00;10.10;96423.00;;;;5055223;28;20208;-57
2023/01/06 12:28:31;;;;;;;0.60;0.60;;;10.70;63.80;9.90;96415.00;;;;5054960;28;20204;-57
2023/01/06 12:31:08;;;;;;;0.50;0.50;;;10.70;64.40;10.10;96417.00;;;;5054900;28;20169;-58
2023/01/06 12:33:44;;;;;;;0.70;0.70;;;;;9.90;96416.00;;;;5054873;28;20263;-58
2023/01/06 12:36:19;;;;;;;0.50;0.50;;;;;10.00;96411.00;;;;5054791;28;20273;-58
2023/01/06 12:38:53;;;;;;;0.50;0.50;;;;;10.00;96419.00;;;;5055255;28;20188;-58
2023/01/06 12:41:28;;;;;;;0.60;0.60;;;;;10.10;96413.00;;;;5055168;28;20650;-57